Virtual Futura



 METAR AND TAF INFORMATION
METAR FOR LEBG
ADDS - METARS form results

(2049 UTC 22 September 2019)
Data provider http://aviationweather.gov/metar/data/
 
METAR text: LEBG 222030Z AUTO VRB01KT 9999 NCD 11/07 Q1019
Conditions at: LEBG (BURGOS/VILLAFRIA, ES) observed 2030 UTC 22 September 2019
Temperature: 11.0°C (52°F)
Dewpoint: 7.0°C (45°F) [RH = 76%]
Pressure (altimeter): 30.09 inches Hg (1019.0 mb)
Winds: variable direction winds at 1 MPH (1 knots; 0.5 m/s)
Visibility: 6 or more miles (10+ km)
Ceiling: at least 12,000 feet AGL
Clouds: sky clear below 12,000 feet AGL
Weather: no significant weather observed at this time

METAR text: LEBG 222000Z AUTO 19003KT 160V220 9999 NCD 11/06 Q1019
Conditions at: LEBG (BURGOS/VILLAFRIA, ES) observed 2000 UTC 22 September 2019
Temperature: 11.0°C (52°F)
Dewpoint: 6.0°C (43°F) [RH = 71%]
Pressure (altimeter): 30.09 inches Hg (1019.0 mb)
Winds: from the S (190 degrees) at 3 MPH (3 knots; 1.5 m/s)
Visibility: 6 or more miles (10+ km)
Ceiling: at least 12,000 feet AGL
Clouds: sky clear below 12,000 feet AGL
Weather: no significant weather observed at this time

Forecast for: LEBG (BURGOS/VILLAFRIA, ES)
Text: TAF LEBG 221700Z 2218/2303 VRB05KT 9999 SCT050
Forecast period: 1800 UTC 22 September 2019 to 0300 UTC 23 September 2019
Forecast type: FROM: standard forecast or significant change
Winds: variable direction winds at 6 MPH (5 knots; 2.6 m/s)
Visibility: 6 or more miles 10+ km)
Ceiling: at least 12,000 feet AGL
Clouds: scattered clouds at 5000 feet AGL
Weather: no significant weather forecast for this period
Text: TEMPO 2218/2220 24010KT
Forecast period: 1800 to 2000 UTC 22 September 2019
Forecast type: TEMPORARY: The following changes expected for less than half the time period
Winds: from the WSW (240 degrees) at 12 MPH (10 knots; 5.1 m/s)
Visibility: missing
Ceiling: unknown
Clouds: missing
Weather: no significant weather forecast for this period

 AIRPORT MAP

 RUNWAY INFORMATION
Runway 06 Runway length 4393 ft Runway width 98 ft
Runway elevation 2907 ft Runway displaced threshold 0 ft Runway heading 56
Runway 24 Runway length 4393 ft Runway width 98 ft
Runway elevation 2945 ft Runway displaced threshold 0 ft Runway heading 236

 AIRPORT FREQUENCIES
Type UNIC Name UNIC Frequency 122.4 MHZ

 AIRPORT NEAR NAVIGATION AIDS
Type NDB Name Burgos Frequency 357 KHZ
Type VOR-DME Name Burgos Frequency 111400 KHZ

Poltica de Cookies

Esta web utiliza cookies para obtener datos estadsticos de la navegacin de sus usuarios. Si continas navegando consideramos que aceptas su uso. Ms informacin X Cerrar